Grass Range, MT (59032)

4:32 PM MDT on September 19, 2017 (GMT -0600)
5E Ranch | | Change Station

Elev 4501 ft 46.86 °N, 108.85 °W | Updated 10 seconds ago

Mostly Cloudy
Mostly Cloudy
53.0 °F
Feels Like 53.0 °F
N
9.3
Wind Variable Wind from WSW
Gusts 16.0 mph

Today
High -- | Low -- °F
--% Chance of Precip.
Yesterday
High -- | Low -- °F
Precip. -- in
Pressure 29.60 in
Visibility 10.0 miles
Clouds Few 7000 ft
Scattered Clouds 8500 ft
Dew Point 26 °F
Humidity 35%
Rainfall 0.00 in
Snow Depth Not available.
6:58 AM 7:18 PM
Waning Crescent, 0% visible
METAR KLWT 192154Z AUTO 29007G16KT 10SM FEW070 SCT085 12/M03 A2963 RMK AO2 SLP023 T01221033
Pressure 29.60 in
Visibility 10.0 miles
Clouds Few 7000 ft
Scattered Clouds 8500 ft
Dew Point 26 °F
Humidity 35%
Rainfall 0.00 in
Snow Depth Not available.
6:58 AM 7:18 PM
Waning Crescent, 0% visible
METAR KLWT 192154Z AUTO 29007G16KT 10SM FEW070 SCT085 12/M03 A2963 RMK AO2 SLP023 T01221033

Get Severe Weather Alerts

Thanks for signing up!

Be on the lookout for a verification email in your inbox.

You'll start receiving the daily forecast at 6 AM.

×

10-Day Weather Forecast

Almanac

Astronomy

Sep. 19, 2017 Rise Set
Actual Time
Civil Twilight
Nautical Twilight
Astronomical Twilight
Moon
Length of Visible Light
Length of Day
Tomorrow will be .
, % of the Moon is Illuminated

Today's Extremes

State Highs State Lows

Community

WunderPhotos

Category 6

Welcome to Category 6. This is the collective home for Weather Underground's featured writeups by Dr. Jeff Masters (right), Bob Henson (left), Chris Burt, and other regular contributors.

Nearby

Air Quality

  Air Quality AQ Index Pollutant
Not available.

Snow Depth

Station Depth Elevation

Earthquake Activity

City Distance Mag. Time & Date
Minimum magnitude displayed is 2.5.

Coastal Water Temperatures

Place Temperature

Stations

Nearby Weather Stations

Station Location Temp. Windchill Dew Point Humidity Wind Precip. Elev Updated Type
                   

Watches & Warnings

There are currently no watches in effect.